Time;durP1;ratioP1;P1;durP2;ratioP2;P2;SDS_P1;SDS_P2;PMS_P1;PMS_P2;Temp;Humidity;BMP_temperature;BMP_pressure;BME280_temperature;BME280_humidity;BME280_pressure;Samples;Min_cycle;Max_cycle;Signal;HPM_P1;HPM_P2
2022/03/21 00:01:23;;;;;;;44.10;31.08;;;6.60;99.90;;;;;;6252143;22;20106;-93
2022/03/21 00:03:50;;;;;;;43.05;30.17;;;6.60;99.90;;;;;;6251531;22;20018;-90
2022/03/21 00:06:16;;;;;;;45.15;29.73;;;6.60;99.90;;;;;;6251407;22;20342;-94
2022/03/21 00:08:43;;;;;;;44.22;29.95;;;6.70;99.90;;;;;;6279653;22;20406;-94
2022/03/21 00:11:09;;;;;;;41.20;29.27;;;6.70;99.90;;;;;;6277725;22;20073;-92
2022/03/21 00:13:35;;;;;;;40.83;29.48;;;6.70;99.90;;;;;;6251139;22;20098;-88
2022/03/21 00:16:01;;;;;;;43.37;29.17;;;6.70;99.90;;;;;;6251091;22;20016;-94
2022/03/21 00:18:27;;;;;;;42.58;29.35;;;6.80;99.90;;;;;;6276448;22;20022;-89
2022/03/21 00:20:55;;;;;;;39.50;27.60;;;6.80;99.90;;;;;;6254702;22;20379;-91
2022/03/21 00:23:22;;;;;;;37.97;26.35;;;6.70;99.90;;;;;;6260804;22;20341;-90
2022/03/21 00:25:48;;;;;;;40.13;27.27;;;6.80;99.90;;;;;;6259434;22;20022;-92
2022/03/21 00:28:14;;;;;;;38.33;27.27;;;6.80;99.90;;;;;;6252764;22;20020;-93
2022/03/21 00:30:42;;;;;;;39.60;26.50;;;6.80;99.90;;;;;;6287901;22;20111;-88
2022/03/21 00:33:08;;;;;;;39.67;26.75;;;6.80;99.90;;;;;;6253502;22;20023;-89
2022/03/21 00:35:34;;;;;;;37.50;27.20;;;6.70;99.90;;;;;;6250769;22;20094;-92
2022/03/21 00:38:00;;;;;;;40.90;27.20;;;6.80;99.90;;;;;;6279353;22;20253;-90
2022/03/21 00:40:26;;;;;;;37.90;26.80;;;6.80;99.90;;;;;;6253483;22;20019;-96
2022/03/21 00:42:53;;;;;;;38.50;26.03;;;6.80;99.90;;;;;;6278053;22;20560;-90
2022/03/21 00:45:23;;;;;;;37.38;25.15;;;6.80;99.90;;;;;;6252580;22;20015;-92
2022/03/21 00:47:49;;;;;;;35.10;25.02;;;6.80;99.90;;;;;;6258458;22;20437;-93
2022/03/21 00:50:17;;;;;;;34.47;24.67;;;6.80;99.90;;;;;;6263156;22;20015;-87
2022/03/21 00:53:05;;;;;;;36.53;23.95;;;6.80;99.90;;;;;;6261326;22;20015;-86
2022/03/21 00:55:31;;;;;;;31.58;22.50;;;6.70;99.90;;;;;;6267553;22;20102;-85
2022/03/21 00:58:01;;;;;;;32.43;23.40;;;6.70;99.90;;;;;;6297776;22;20026;-84
2022/03/21 01:00:28;;;;;;;31.30;22.85;;;6.70;99.90;;;;;;6300219;22;20091;-88
2022/03/21 01:03:09;;;;;;;35.17;23.88;;;6.70;99.90;;;;;;6272454;22;20068;-84
2022/03/21 01:05:36;;;;;;;36.88;23.17;;;6.60;99.90;;;;;;6294986;22;20023;-88
2022/03/21 01:08:04;;;;;;;34.80;23.20;;;6.60;99.90;;;;;;6271247;22;20051;-87
2022/03/21 01:10:39;;;;;;;;;;;6.60;99.90;;;;;;6260125;22;20019;-93
2022/03/21 01:13:23;;;;;;;30.30;20.90;;;6.50;99.90;;;;;;6257375;22;19953;-83
2022/03/21 01:16:08;;;;;;;33.13;22.38;;;6.50;99.90;;;;;;6255631;22;20093;-86
2022/03/21 01:18:34;;;;;;;30.00;21.15;;;6.50;99.90;;;;;;6255420;22;20041;-91
2022/03/21 01:20:59;;;;;;;33.80;21.90;;;6.50;99.90;;;;;;6255610;22;20310;-91
2022/03/21 01:23:25;;;;;;;31.13;21.80;;;6.50;99.90;;;;;;6281354;22;20104;-85
2022/03/21 01:25:51;;;;;;;34.70;22.83;;;6.50;99.90;;;;;;6308392;22;20019;-89
2022/03/21 01:28:17;;;;;;;32.80;21.83;;;6.50;99.90;;;;;;6281251;22;20011;-91
2022/03/21 01:30:42;;;;;;;32.38;21.33;;;6.50;99.90;;;;;;6308188;22;20077;-90
2022/03/21 01:33:08;;;;;;;31.60;22.07;;;6.40;99.90;;;;;;6250124;22;20012;-87
2022/03/21 01:35:34;;;;;;;32.43;20.57;;;6.40;99.90;;;;;;6250043;22;20012;-88
2022/03/21 01:37:59;;;;;;;28.30;21.30;;;6.50;99.90;;;;;;6225159;22;20012;-88
2022/03/21 01:40:25;;;;;;;30.13;20.47;;;6.40;99.90;;;;;;6250240;22;20070;-88
2022/03/21 01:42:52;;;;;;;31.07;20.17;;;6.40;99.90;;;;;;6226151;22;20022;-87
2022/03/21 01:45:19;;;;;;;31.83;20.65;;;6.40;99.90;;;;;;6231321;22;20016;-93
2022/03/21 01:47:46;;;;;;;30.30;20.05;;;6.40;99.90;;;;;;6207768;22;20019;-86
2022/03/21 01:50:13;;;;;;;;;;;6.40;99.90;;;;;;6231336;22;20092;-87
2022/03/21 01:52:41;;;;;;;30.10;18.55;;;6.40;99.90;;;;;;6256278;22;19915;-88
2022/03/21 01:57:54;;;;;;;31.60;17.95;;;6.40;99.90;;;;;;6258574;22;20020;-84
2022/03/21 02:03:07;;;;;;;27.77;18.70;;;6.40;99.90;;;;;;6241011;22;20022;-96
2022/03/21 02:06:07;;;;;;;31.92;18.13;;;6.40;99.90;;;;;;6224967;22;20028;-96
2022/03/21 02:08:48;;;;;;;27.70;18.10;;;6.30;99.90;;;;;;6225965;22;20026;-90
2022/03/21 02:11:15;;;;;;;26.88;17.92;;;6.20;99.90;;;;;;6226195;22;20019;-90
2022/03/21 02:13:41;;;;;;;27.40;17.90;;;6.20;99.90;;;;;;6225707;22;20468;-85
2022/03/21 02:16:08;;;;;;;26.73;17.40;;;6.10;99.90;;;;;;6278765;22;20016;-95
2022/03/21 02:18:38;;;;;;;28.75;17.80;;;6.00;99.90;;;;;;6279502;22;20073;-92
2022/03/21 02:21:06;;;;;;;25.77;17.40;;;6.00;99.90;;;;;;6251860;22;20015;-87
2022/03/21 02:24:20;;;;;;;23.77;16.38;;;6.00;99.90;;;;;;6253279;22;20015;-92
2022/03/21 02:26:46;;;;;;;24.98;16.67;;;6.00;99.90;;;;;;6129223;23;20024;-93
2022/03/21 02:29:13;;;;;;;27.25;16.27;;;5.80;99.90;;;;;;6129279;23;20049;-93
2022/03/21 02:31:40;;;;;;;27.10;16.80;;;5.80;99.90;;;;;;6170168;22;20066;-87
2022/03/21 02:34:06;;;;;;;24.27;16.60;;;5.70;99.90;;;;;;6249905;22;20046;-86
2022/03/21 02:36:32;;;;;;;28.52;17.92;;;5.60;99.90;;;;;;6250822;22;20023;-91
2022/03/21 02:38:59;;;;;;;28.10;18.33;;;5.50;99.90;;;;;;6226689;22;20015;-90
2022/03/21 02:41:24;;;;;;;26.50;17.80;;;5.50;99.90;;;;;;6252059;22;20016;-89
2022/03/21 02:43:54;;;;;;;30.57;17.83;;;5.60;99.90;;;;;;6225705;22;20051;-87
2022/03/21 02:46:21;;;;;;;25.55;17.13;;;5.50;99.90;;;;;;6229695;22;20019;-87
2022/03/21 02:48:47;;;;;;;41.65;18.05;;;5.50;99.90;;;;;;6232304;22;20015;-93
2022/03/21 02:51:14;;;;;;;25.77;17.52;;;5.40;99.90;;;;;;6257584;22;20016;-90
2022/03/21 02:53:41;;;;;;;29.23;17.27;;;5.30;99.90;;;;;;6250456;22;20432;-92
2022/03/21 02:56:07;;;;;;;30.55;19.08;;;5.30;99.90;;;;;;6277688;22;20413;-95
2022/03/21 02:58:33;;;;;;;27.63;18.65;;;5.30;99.90;;;;;;6224464;22;20019;-94
2022/03/21 03:01:07;;;;;;;30.73;20.92;;;5.20;99.90;;;;;;6250357;22;20457;-88
2022/03/21 03:03:32;;;;;;;32.30;21.35;;;5.10;99.90;;;;;;6238957;22;20019;-89
2022/03/21 03:05:58;;;;;;;34.03;21.40;;;5.10;99.90;;;;;;6251414;22;20023;-92
2022/03/21 03:08:24;;;;;;;32.73;21.50;;;5.20;99.90;;;;;;6251722;22;20364;-95
2022/03/21 03:10:55;;;;;;;32.33;22.23;;;5.20;99.90;;;;;;6284025;22;20023;-85
2022/03/21 03:13:24;;;;;;;34.85;22.40;;;5.20;99.90;;;;;;6289497;22;20445;-91
2022/03/21 03:15:51;;;;;;;36.43;23.40;;;5.20;99.90;;;;;;6290042;22;20047;-85
2022/03/21 03:18:17;;;;;;;30.45;21.42;;;5.20;99.90;;;;;;6286618;22;20090;-90
2022/03/21 03:20:57;;;;;;;35.87;23.23;;;5.10;99.90;;;;;;6298556;22;20023;-87
2022/03/21 03:23:25;;;;;;;34.90;21.67;;;5.10;99.90;;;;;;6268301;22;20070;-86
2022/03/21 03:26:02;;;;;;;34.40;22.90;;;5.00;99.90;;;;;;6266704;22;20015;-85
2022/03/21 03:28:29;;;;;;;41.25;23.55;;;5.00;99.90;;;;;;6293093;22;20011;-88
2022/03/21 03:30:56;;;;;;;34.78;21.83;;;5.00;99.90;;;;;;6294230;22;20023;-84
2022/03/21 03:33:22;;;;;;;31.05;21.27;;;5.10;99.90;;;;;;6268960;22;20041;-85
2022/03/21 03:35:48;;;;;;;33.58;23.55;;;5.10;99.90;;;;;;6293669;22;20016;-90
2022/03/21 03:38:16;;;;;;;37.30;22.98;;;5.00;99.90;;;;;;6290015;22;20018;-89
2022/03/21 03:40:45;;;;;;;33.67;22.17;;;5.10;99.90;;;;;;6264501;22;20401;-85
2022/03/21 03:43:14;;;;;;;35.58;22.02;;;5.00;99.90;;;;;;6316523;22;20045;-86
2022/03/21 03:45:40;;;;;;;30.38;21.25;;;5.10;99.90;;;;;;6290265;22;20023;-90
2022/03/21 03:48:06;;;;;;;30.50;20.53;;;5.00;99.90;;;;;;6290300;22;20015;-89
2022/03/21 03:50:31;;;;;;;25.57;18.90;;;5.00;99.90;;;;;;6289935;22;20023;-85
2022/03/21 03:52:57;;;;;;;28.93;18.37;;;4.90;99.90;;;;;;6290507;22;20011;-87
2022/03/21 03:55:23;;;;;;;34.53;20.27;;;4.70;99.90;;;;;;6290622;22;20027;-86
2022/03/21 03:57:49;;;;;;;32.20;21.00;;;4.60;99.90;;;;;;6290169;22;20025;-86
2022/03/21 04:00:16;;;;;;;29.77;19.33;;;4.50;99.90;;;;;;6291522;22;20479;-86
2022/03/21 04:05:28;;;;;;;29.25;20.48;;;4.30;99.90;;;;;;6321344;22;20462;-87
2022/03/21 04:07:54;;;;;;;32.17;20.67;;;4.20;99.90;;;;;;6269319;22;20015;-89
2022/03/21 04:10:21;;;;;;;36.00;24.25;;;4.20;99.90;;;;;;6263684;22;20015;-95
2022/03/21 04:12:51;;;;;;;34.58;22.33;;;4.20;99.90;;;;;;6256968;22;20521;-88
2022/03/21 04:15:18;;;;;;;34.25;22.20;;;4.20;99.90;;;;;;6314187;22;20026;-95
2022/03/21 04:17:59;;;;;;;31.50;22.77;;;4.30;99.90;;;;;;6291374;22;20042;-84
2022/03/21 04:20:31;;;;;;;32.80;21.63;;;4.30;99.90;;;;;;6293572;22;20026;-87
2022/03/21 04:22:58;;;;;;;31.58;21.13;;;4.30;99.90;;;;;;6258221;22;20069;-87
2022/03/21 04:25:24;;;;;;;;;;;4.20;99.90;;;;;;6292751;22;20015;-84
2022/03/21 04:27:49;;;;;;;31.23;19.55;;;4.20;99.90;;;;;;6267744;22;19914;-86
2022/03/21 04:30:15;;;;;;;30.83;21.07;;;4.10;99.90;;;;;;6313730;22;20442;-86
2022/03/21 04:32:41;;;;;;;31.53;20.90;;;4.10;99.90;;;;;;6259902;22;20440;-90
2022/03/21 04:35:07;;;;;;;28.10;19.90;;;4.00;99.90;;;;;;6257660;22;20379;-86
2022/03/21 04:37:33;;;;;;;30.80;21.30;;;4.00;99.90;;;;;;6256668;22;20095;-96
2022/03/21 04:39:59;;;;;;;37.83;23.07;;;4.00;99.90;;;;;;6257448;22;20289;-89
2022/03/21 04:42:25;;;;;;;36.50;22.33;;;4.00;99.90;;;;;;6284701;22;20011;-88
2022/03/21 04:44:51;;;;;;;30.50;21.53;;;4.00;99.90;;;;;;6256166;22;20038;-89
2022/03/21 04:47:21;;;;;;;31.40;21.08;;;4.00;99.90;;;;;;6268545;22;20021;-88
2022/03/21 04:49:48;;;;;;;29.80;20.30;;;4.10;99.90;;;;;;6287391;22;20047;-90
2022/03/21 04:52:14;;;;;;;30.83;20.85;;;4.10;99.90;;;;;;6257867;22;20098;-95
2022/03/21 04:54:40;;;;;;;29.17;19.63;;;4.00;99.90;;;;;;6282793;22;20058;-93
2022/03/21 04:57:06;;;;;;;27.13;18.37;;;4.00;99.90;;;;;;6257207;22;20064;-88
2022/03/21 04:59:33;;;;;;;;;;;4.00;99.90;;;;;;6289238;22;20015;-87
2022/03/21 05:01:59;;;;;;;28.15;19.02;;;3.90;99.90;;;;;;6264675;22;19917;-89
2022/03/21 05:04:26;;;;;;;33.08;19.48;;;3.90;99.90;;;;;;6257579;22;20022;-94
2022/03/21 05:06:53;;;;;;;31.52;19.40;;;3.90;99.90;;;;;;6282127;22;20074;-91
2022/03/21 05:09:20;;;;;;;27.10;18.83;;;3.80;99.90;;;;;;6255638;22;20344;-93
2022/03/21 05:11:52;;;;;;;29.42;19.20;;;3.80;99.90;;;;;;6309415;22;20019;-95
2022/03/21 05:14:19;;;;;;;32.15;19.70;;;3.80;99.90;;;;;;6264650;22;20012;-90
2022/03/21 05:16:49;;;;;;;28.55;19.25;;;3.80;99.90;;;;;;6284642;22;20023;-87
2022/03/21 05:19:15;;;;;;;28.75;18.75;;;3.80;99.90;;;;;;6282904;22;20371;-88
2022/03/21 05:21:41;;;;;;;28.30;18.20;;;3.70;99.90;;;;;;6308830;22;20043;-96
2022/03/21 05:30:58;;;;;;;30.80;19.58;;;3.60;99.90;;;;;;6308754;22;20493;-91
2022/03/21 05:36:08;;;;;;;27.88;18.83;;;3.60;99.90;;;;;;6282144;22;20053;-90
2022/03/21 05:38:34;;;;;;;26.90;17.77;;;3.60;99.90;;;;;;6257693;22;20011;-91
2022/03/21 05:41:20;;;;;;;27.48;18.48;;;3.60;99.90;;;;;;6286024;22;20514;-87
2022/03/21 05:43:46;;;;;;;26.02;17.35;;;3.50;99.90;;;;;;6265994;22;20071;-87
2022/03/21 05:46:15;;;;;;;30.83;19.73;;;3.50;99.90;;;;;;6263831;22;20022;-88
2022/03/21 05:48:51;;;;;;;29.97;19.77;;;3.40;99.90;;;;;;6291243;22;20015;-86
2022/03/21 05:51:18;;;;;;;26.48;18.67;;;3.40;99.90;;;;;;6284856;22;20749;-86
2022/03/21 05:53:48;;;;;;;27.73;18.00;;;3.40;99.90;;;;;;6281657;22;20436;-87
2022/03/21 05:56:14;;;;;;;30.77;19.05;;;3.40;99.90;;;;;;6307863;22;20340;-89
2022/03/21 05:58:42;;;;;;;28.85;18.58;;;3.40;99.90;;;;;;6307711;22;20023;-88
2022/03/21 06:01:11;;;;;;;30.02;18.25;;;3.50;99.90;;;;;;6254857;22;20080;-85
2022/03/21 06:03:37;;;;;;;27.83;18.15;;;3.50;99.90;;;;;;6307488;22;20440;-91
2022/03/21 06:06:02;;;;;;;27.88;18.77;;;3.40;99.90;;;;;;6307637;22;20015;-88
2022/03/21 06:08:29;;;;;;;29.95;18.92;;;3.50;99.90;;;;;;6255053;22;20122;-89
2022/03/21 06:11:03;;;;;;;29.08;17.52;;;3.50;99.90;;;;;;6254862;22;20355;-86
2022/03/21 06:13:33;;;;;;;33.42;19.92;;;3.50;99.90;;;;;;6280577;22;20444;-93
2022/03/21 06:16:03;;;;;;;31.58;19.35;;;3.40;99.90;;;;;;6280317;22;20011;-89
2022/03/21 06:18:35;;;;;;;31.20;19.38;;;3.30;99.90;;;;;;6280525;22;20023;-89
2022/03/21 06:21:30;;;;;;;28.55;17.85;;;3.40;99.90;;;;;;6282402;22;20073;-90
2022/03/21 06:23:57;;;;;;;31.77;19.85;;;3.40;99.90;;;;;;6262372;22;20015;-96
2022/03/21 06:26:23;;;;;;;32.17;19.55;;;3.50;99.90;;;;;;6261253;22;20019;-93
2022/03/21 06:28:49;;;;;;;30.90;19.93;;;3.50;99.90;;;;;;6284890;22;20102;-92
2022/03/21 06:31:15;;;;;;;30.13;19.73;;;3.60;99.90;;;;;;6266152;22;20070;-92
2022/03/21 06:33:44;;;;;;;28.70;19.60;;;3.70;99.90;;;;;;6320445;22;20060;-88
2022/03/21 06:36:30;;;;;;;29.30;19.60;;;3.80;99.90;;;;;;6292999;22;20053;-88
2022/03/21 06:38:55;;;;;;;29.55;19.75;;;3.90;99.90;;;;;;6321546;22;20015;-96
2022/03/21 06:41:24;;;;;;;29.85;20.15;;;4.10;99.90;;;;;;6287456;22;20019;-95
2022/03/21 06:43:50;;;;;;;34.00;20.98;;;4.10;99.90;;;;;;6258756;22;20031;-88
2022/03/21 06:46:15;;;;;;;37.43;27.13;;;4.20;99.90;;;;;;6256770;22;20075;-90
2022/03/21 06:48:41;;;;;;;37.72;22.17;;;4.40;99.90;;;;;;6255935;22;20011;-92
2022/03/21 06:51:07;;;;;;;34.60;21.47;;;4.70;99.90;;;;;;6255721;22;20018;-91
2022/03/21 06:53:32;;;;;;;28.77;19.53;;;5.10;99.90;;;;;;6256148;22;20007;-91
2022/03/21 06:55:58;;;;;;;30.20;19.97;;;5.60;99.90;;;;;;6256676;22;20376;-89
2022/03/21 06:58:24;;;;;;;29.97;19.77;;;5.80;99.90;;;;;;6256871;22;20011;-90
2022/03/21 07:00:50;;;;;;;27.37;18.67;;;6.10;99.90;;;;;;6256851;22;20094;-93
2022/03/21 07:03:16;;;;;;;30.33;19.40;;;6.30;99.90;;;;;;6256716;22;20042;-89
2022/03/21 07:06:01;;;;;;;28.48;19.13;;;6.50;99.90;;;;;;6282884;22;20019;-88
2022/03/21 07:08:27;;;;;;;28.95;18.77;;;6.70;99.90;;;;;;6256632;22;20034;-91
2022/03/21 07:10:52;;;;;;;27.93;19.03;;;6.80;99.90;;;;;;6256908;22;20518;-89
2022/03/21 07:13:18;;;;;;;29.83;19.60;;;6.80;99.90;;;;;;6256816;22;20027;-89
2022/03/21 07:15:53;;;;;;;29.43;20.67;;;6.80;99.90;;;;;;6258122;22;20015;-87
2022/03/21 07:18:34;;;;;;;29.85;18.88;;;6.80;99.90;;;;;;6256834;22;20046;-89
2022/03/21 07:21:00;;;;;;;29.55;20.73;;;7.20;99.90;;;;;;6275983;22;20090;-89
2022/03/21 07:23:26;;;;;;;33.70;20.67;;;7.40;99.90;;;;;;6250968;22;20492;-91
2022/03/21 07:25:51;;;;;;;28.37;19.57;;;7.40;99.90;;;;;;6251800;22;20016;-90
2022/03/21 07:28:17;;;;;;;30.53;21.07;;;7.40;99.90;;;;;;6251715;22;20070;-90
2022/03/21 07:30:43;;;;;;;29.50;19.97;;;7.30;99.90;;;;;;6251723;22;20015;-90
2022/03/21 07:33:09;;;;;;;27.60;21.10;;;7.30;99.90;;;;;;6251738;22;20276;-91
2022/03/21 07:35:36;;;;;;;32.40;21.77;;;7.40;99.90;;;;;;6251454;22;20054;-89
2022/03/21 07:38:02;;;;;;;31.13;20.90;;;7.60;99.90;;;;;;6251481;22;20029;-90
2022/03/21 07:40:28;;;;;;;32.27;21.33;;;8.00;99.90;;;;;;6251719;22;20510;-91
2022/03/21 07:42:54;;;;;;;30.77;21.03;;;8.40;99.90;;;;;;6251432;22;20043;-89
2022/03/21 07:48:04;;;;;;;31.08;21.77;;;9.10;99.90;;;;;;6276850;22;20020;-90
2022/03/21 07:50:31;;;;;;;35.35;23.40;;;9.20;99.90;;;;;;6250992;22;20047;-89
2022/03/21 07:52:58;;;;;;;32.42;22.35;;;9.50;99.90;;;;;;6251198;22;20022;-89
2022/03/21 07:55:24;;;;;;;30.83;21.58;;;9.70;99.90;;;;;;6251081;22;20012;-90
2022/03/21 07:57:50;;;;;;;33.78;21.92;;;9.70;99.90;;;;;;6251465;22;20016;-90
2022/03/21 08:00:16;;;;;;;34.07;22.27;;;9.40;99.90;;;;;;6251447;22;20337;-90
2022/03/21 08:02:43;;;;;;;36.00;23.40;;;9.00;99.90;;;;;;6251319;22;20047;-89
2022/03/21 08:05:09;;;;;;;;;;;8.70;99.90;;;;;;6251676;22;20042;-90
2022/03/21 08:07:35;;;;;;;33.20;21.25;;;8.50;99.90;;;;;;6251336;22;20321;-91
2022/03/21 08:10:03;;;;;;;30.38;21.77;;;8.40;99.90;;;;;;6251426;22;20022;-91
2022/03/21 08:12:28;;;;;;;33.40;21.58;;;8.30;99.90;;;;;;6251490;22;20091;-91
2022/03/21 08:14:57;;;;;;;30.87;22.00;;;8.20;99.90;;;;;;6251336;22;20507;-91
2022/03/21 08:17:23;;;;;;;30.77;21.38;;;8.20;99.90;;;;;;6249329;22;20019;-91
2022/03/21 08:19:49;;;;;;;32.33;22.53;;;8.20;99.90;;;;;;6250735;22;20345;-91
2022/03/21 08:22:15;;;;;;;33.43;23.40;;;8.20;99.90;;;;;;6251450;22;20051;-90
2022/03/21 08:24:41;;;;;;;34.08;23.40;;;8.30;99.90;;;;;;6250946;22;20461;-90
2022/03/21 08:27:07;;;;;;;32.63;23.00;;;8.30;99.90;;;;;;6251233;22;20019;-91
2022/03/21 08:29:33;;;;;;;33.47;22.50;;;8.40;99.90;;;;;;6251471;22;20513;-90
2022/03/21 08:31:59;;;;;;;34.73;22.13;;;8.40;99.90;;;;;;6250956;22;20476;-91
2022/03/21 08:34:24;;;;;;;32.37;21.30;;;8.50;99.90;;;;;;6250703;22;20011;-90
2022/03/21 08:36:50;;;;;;;33.03;21.83;;;8.50;99.90;;;;;;6251151;22;20085;-91
2022/03/21 08:39:16;;;;;;;31.57;22.83;;;8.60;99.90;;;;;;6251025;22;20022;-90
2022/03/21 08:41:42;;;;;;;35.60;23.00;;;8.60;99.90;;;;;;6250781;22;20070;-91
2022/03/21 08:44:08;;;;;;;31.77;21.40;;;8.60;99.90;;;;;;6250766;22;20251;-90
2022/03/21 08:46:33;;;;;;;30.67;22.20;;;8.70;99.90;;;;;;6250736;22;20077;-90
2022/03/21 08:51:46;;;;;;;32.35;20.95;;;8.80;99.90;;;;;;6276396;22;20475;-92
2022/03/21 08:54:12;;;;;;;31.60;21.42;;;8.90;99.90;;;;;;6251023;22;20022;-91
2022/03/21 08:56:38;;;;;;;29.70;21.10;;;9.00;99.90;;;;;;6250848;22;20020;-90
2022/03/21 08:59:03;;;;;;;30.97;22.00;;;9.00;99.90;;;;;;6250714;22;20334;-91
2022/03/21 09:01:29;;;;;;;31.37;21.67;;;9.10;99.90;;;;;;6250256;22;20015;-90
2022/03/21 09:03:55;;;;;;;31.90;22.20;;;9.10;99.90;;;;;;6250426;22;20023;-90
2022/03/21 09:06:22;;;;;;;31.93;21.80;;;9.20;99.90;;;;;;6250815;22;20016;-91
2022/03/21 09:08:48;;;;;;;;;;;9.30;99.90;;;;;;6251184;22;20324;-90
2022/03/21 09:11:14;;;;;;;33.47;21.50;;;9.40;99.90;;;;;;6250586;22;19922;-90
2022/03/21 09:13:40;;;;;;;32.90;21.25;;;9.50;99.90;;;;;;6250533;22;20011;-91
2022/03/21 09:16:06;;;;;;;34.73;21.80;;;9.50;99.90;;;;;;6250865;22;20073;-92
2022/03/21 09:18:32;;;;;;;29.73;21.60;;;9.60;99.90;;;;;;6250833;22;20023;-91
2022/03/21 09:20:57;;;;;;;31.90;20.73;;;9.60;99.90;;;;;;6250637;22;20073;-92
2022/03/21 09:23:23;;;;;;;34.87;21.93;;;9.70;99.90;;;;;;6250587;22;20019;-92
2022/03/21 09:25:49;;;;;;;33.90;21.50;;;9.80;99.90;;;;;;6250222;22;20462;-90
2022/03/21 09:28:15;;;;;;;33.13;21.67;;;9.80;99.90;;;;;;6249455;22;20012;-89
2022/03/21 09:30:41;;;;;;;30.00;20.47;;;10.00;99.90;;;;;;6248586;22;20016;-89
2022/03/21 09:33:07;;;;;;;30.98;21.58;;;10.10;99.90;;;;;;6250517;22;20015;-89
2022/03/21 09:35:34;;;;;;;33.20;21.93;;;10.20;99.90;;;;;;6250479;22;20016;-89
2022/03/21 09:38:00;;;;;;;;;;;10.30;99.90;;;;;;6249898;22;20288;-88
2022/03/21 09:40:28;;;;;;;30.77;20.98;;;10.40;99.90;;;;;;6248447;22;19968;-89
2022/03/21 09:42:55;;;;;;;29.60;20.77;;;10.50;99.90;;;;;;6248904;22;20011;-89
2022/03/21 09:45:21;;;;;;;26.40;19.50;;;10.50;99.90;;;;;;6249742;22;20094;-90
2022/03/21 09:50:34;;;;;;;29.58;19.90;;;10.70;99.90;;;;;;6275756;22;20042;-89
2022/03/21 09:53:00;;;;;;;31.08;19.90;;;10.80;99.90;;;;;;6250049;22;20038;-89
2022/03/21 09:55:26;;;;;;;31.13;19.60;;;11.00;99.90;;;;;;6250315;22;20043;-92
2022/03/21 10:00:49;;;;;;;29.25;19.88;;;11.10;99.90;;;;;;6258848;22;20020;-91
2022/03/21 10:03:18;;;;;;;26.80;18.10;;;11.30;99.90;;;;;;6248666;22;20078;-87
2022/03/21 10:05:46;;;;;;;28.57;19.57;;;11.40;99.90;;;;;;6275598;22;20055;-86
2022/03/21 10:08:24;;;;;;;29.38;19.40;;;11.50;99.90;;;;;;6250085;22;20103;-88
2022/03/21 10:10:52;;;;;;;;;;;11.60;99.90;;;;;;6250454;22;20111;-88
2022/03/21 10:13:20;;;;;;;30.42;18.27;;;11.70;99.90;;;;;;6251009;22;19915;-87
2022/03/21 10:15:46;;;;;;;31.83;19.23;;;11.80;99.90;;;;;;6252120;22;20011;-89
2022/03/21 10:18:14;;;;;;;27.73;19.52;;;11.90;99.90;;;;;;6252039;22;20031;-89
2022/03/21 10:20:43;;;;;;;27.90;18.20;;;12.00;99.90;;;;;;6255962;22;20071;-89
2022/03/21 10:23:17;;;;;;;21.50;15.47;;;12.10;99.90;;;;;;6257360;22;20102;-89
2022/03/21 10:25:44;;;;;;;25.98;15.93;;;12.20;99.90;;;;;;6257241;22;20076;-87
2022/03/21 10:28:11;;;;;;;22.77;15.27;;;12.30;99.90;;;;;;6257520;22;20019;-88
2022/03/21 10:30:43;;;;;;;23.95;14.63;;;12.40;97.90;;;;;;6257135;22;20021;-89
2022/03/21 10:33:09;;;;;;;24.40;15.43;;;12.50;92.20;;;;;;6256928;22;20018;-89
2022/03/21 10:35:45;;;;;;;23.65;15.25;;;12.50;93.00;;;;;;6257052;22;20047;-89
2022/03/21 10:38:11;;;;;;;21.08;15.45;;;12.60;90.80;;;;;;6257263;22;20012;-90
2022/03/21 10:40:44;;;;;;;21.75;13.55;;;12.70;90.50;;;;;;6256852;22;20386;-89
2022/03/21 10:43:15;;;;;;;20.23;14.15;;;12.80;89.70;;;;;;6257267;22;20015;-89
2022/03/21 10:45:48;;;;;;;19.70;13.48;;;12.90;87.50;;;;;;6256889;22;20015;-88
2022/03/21 10:48:18;;;;;;;22.55;14.40;;;12.90;85.40;;;;;;6256889;22;20011;-88
2022/03/21 10:50:46;;;;;;;24.73;16.10;;;13.10;83.90;;;;;;6256900;22;20448;-90
2022/03/21 10:53:25;;;;;;;20.48;13.90;;;13.10;83.80;;;;;;6256966;22;20094;-89
2022/03/21 10:56:09;;;;;;;20.08;14.55;;;13.20;76.70;;;;;;6258196;22;20015;-89
2022/03/21 10:58:47;;;;;;;23.48;14.88;;;13.20;76.90;;;;;;6257476;22;20019;-89
2022/03/21 11:01:14;;;;;;;20.17;14.95;;;13.30;76.90;;;;;;6257192;22;20080;-88
2022/03/21 11:03:41;;;;;;;22.92;15.52;;;13.30;76.30;;;;;;6254863;22;20012;-88
2022/03/21 11:06:11;;;;;;;22.85;14.40;;;13.30;76.90;;;;;;6254187;22;20011;-89
2022/03/21 11:08:38;;;;;;;25.15;15.32;;;13.40;76.80;;;;;;6256752;22;20016;-89
2022/03/21 11:11:05;;;;;;;23.77;15.68;;;13.50;77.20;;;;;;6256925;22;20019;-89
2022/03/21 11:13:32;;;;;;;22.17;16.48;;;13.60;77.40;;;;;;6256725;22;20050;-90
2022/03/21 11:15:58;;;;;;;;;;;13.70;77.20;;;;;;6257506;22;20014;-89
2022/03/21 11:18:27;;;;;;;24.90;17.02;;;13.80;78.90;;;;;;6256983;22;20283;-89
2022/03/21 11:20:53;;;;;;;27.40;16.58;;;13.80;78.20;;;;;;6256586;22;20015;-87
2022/03/21 11:23:19;;;;;;;24.02;16.83;;;13.90;78.30;;;;;;6276884;22;20031;-89
2022/03/21 11:25:50;;;;;;;26.83;16.67;;;13.90;77.90;;;;;;6251306;22;20103;-89
2022/03/21 11:28:23;;;;;;;24.77;16.23;;;14.00;77.10;;;;;;6251954;22;20011;-90
2022/03/21 11:31:24;;;;;;;24.50;16.95;;;13.90;75.40;;;;;;6251818;22;20020;-90
2022/03/21 11:34:16;;;;;;;22.63;16.08;;;14.00;76.00;;;;;;6251870;22;20340;-89
2022/03/21 11:36:52;;;;;;;23.52;16.15;;;14.00;75.60;;;;;;6251645;22;20023;-89
2022/03/21 11:39:18;;;;;;;23.90;15.70;;;14.10;75.60;;;;;;6251740;22;20101;-89
2022/03/21 11:42:07;;;;;;;24.80;16.08;;;14.20;74.20;;;;;;6251755;22;20019;-90
2022/03/21 11:44:33;;;;;;;20.95;15.40;;;14.30;73.20;;;;;;6251424;22;20027;-90
2022/03/21 11:47:23;;;;;;;23.75;16.40;;;14.30;73.20;;;;;;6251624;22;20015;-90
2022/03/21 11:49:50;;;;;;;21.75;16.13;;;14.30;73.90;;;;;;6251636;22;20015;-90
2022/03/21 11:52:16;;;;;;;24.42;16.77;;;14.40;73.30;;;;;;6251767;22;20072;-91
2022/03/21 11:54:43;;;;;;;25.60;16.73;;;14.40;73.80;;;;;;6251142;22;20065;-89
2022/03/21 11:57:17;;;;;;;23.60;16.38;;;14.40;74.10;;;;;;6251277;22;20023;-90
2022/03/21 11:59:43;;;;;;;24.25;16.90;;;14.50;73.80;;;;;;6251319;22;20019;-89
2022/03/21 12:02:13;;;;;;;23.50;16.63;;;14.50;74.30;;;;;;6251218;22;20062;-88
2022/03/21 12:04:42;;;;;;;25.67;17.67;;;14.60;74.70;;;;;;6276775;22;20069;-88
2022/03/21 12:07:14;;;;;;;22.10;16.20;;;14.70;73.10;;;;;;6251082;22;20015;-89
2022/03/21 12:09:41;;;;;;;26.05;17.73;;;14.50;71.10;;;;;;6251318;22;20027;-89
2022/03/21 12:12:10;;;;;;;22.63;16.30;;;14.50;72.00;;;;;;6250944;22;20008;-88
2022/03/21 12:14:48;;;;;;;25.05;17.15;;;14.50;72.50;;;;;;6251141;22;20038;-89
2022/03/21 12:17:14;;;;;;;21.58;16.05;;;14.50;71.40;;;;;;6251022;22;20095;-89
2022/03/21 12:19:48;;;;;;;22.67;16.10;;;14.60;71.60;;;;;;6251105;22;20389;-88
2022/03/21 12:22:33;;;;;;;23.17;17.10;;;14.60;71.60;;;;;;6250879;22;20337;-90
2022/03/21 12:24:59;;;;;;;23.85;16.15;;;14.70;69.60;;;;;;6250884;22;20036;-89
2022/03/21 12:27:36;;;;;;;20.67;14.57;;;14.70;70.60;;;;;;6250716;22;20511;-90
2022/03/21 12:30:27;;;;;;;23.83;15.35;;;14.70;69.60;;;;;;6251189;22;20020;-89
2022/03/21 12:33:23;;;;;;;24.63;15.90;;;14.70;69.60;;;;;;6250970;22;20026;-90
2022/03/21 12:35:49;;;;;;;24.27;16.27;;;14.80;68.90;;;;;;6250796;22;20019;-89
2022/03/21 12:38:24;;;;;;;22.13;15.17;;;14.80;69.40;;;;;;6250970;22;20345;-89
2022/03/21 12:40:58;;;;;;;24.58;15.68;;;14.90;69.10;;;;;;6250962;22;20019;-90
2022/03/21 12:43:45;;;;;;;22.92;15.60;;;14.90;68.50;;;;;;6250977;22;20016;-90
2022/03/21 12:46:14;;;;;;;22.00;15.18;;;14.90;68.40;;;;;;6250701;22;20022;-91
2022/03/21 12:48:42;;;;;;;22.02;15.60;;;14.90;68.90;;;;;;6251066;22;20016;-90
2022/03/21 12:51:09;;;;;;;21.45;14.73;;;14.90;68.90;;;;;;6250804;22;20138;-90
2022/03/21 12:53:56;;;;;;;22.10;15.30;;;14.90;68.00;;;;;;6250847;22;20012;-91
2022/03/21 12:56:23;;;;;;;;;;;14.90;67.90;;;;;;6251418;22;20016;-90
2022/03/21 12:58:54;;;;;;;23.65;16.25;;;14.80;67.60;;;;;;6250909;22;19919;-89
2022/03/21 13:01:23;;;;;;;19.83;14.45;;;14.80;68.60;;;;;;6250729;22;20020;-89
2022/03/21 13:10:32;;;;;;;24.38;14.90;;;14.80;69.10;;;;;;6250242;22;20022;-88
2022/03/21 13:12:28;;;;;;;22.63;15.70;;;14.90;68.40;;;;;;6276057;22;20058;-90
2022/03/21 13:15:05;;;;;;;21.20;15.73;;;14.90;68.00;;;;;;6251063;22;20019;-90
2022/03/21 13:17:57;;;;;;;22.73;16.02;;;14.90;67.50;;;;;;6250517;22;20023;-89
2022/03/21 13:20:40;;;;;;;21.67;16.60;;;14.90;67.70;;;;;;6250461;22;20051;-90
2022/03/21 13:23:10;;;;;;;23.77;15.77;;;14.90;67.40;;;;;;6250806;22;20482;-90